KCON/CON METAR and TAF weather

Enter ICAO airport designator
Station Type Date Time Source
KCON METAR 2023/02/04 01:51 UTC NOAA

KCON 040151Z AUTO 31018G34KT 9SM -SN OVC048 M24/M35 A3020 RMK AO2 PK WND 34039/0128 SLP236 P0000 T12391350


Station Type Date Time Source
KCON Decoded METAR 2023/02/04 01:51 UTC NOAA

Concord, Concord Municipal Airport, NH, United States (KCON) 43-11-43N 071-30-04W 103M
Feb 03, 2023 - 08:51 PM EST / 2023.02.04 0151 UTC
Wind: from the NW (310 degrees) at 21 MPH (18 KT) gusting to 39 MPH (34 KT):0
Visibility: 9 mile(s):0
Sky conditions: overcast
Weather: light snow
Precipitation last hour: A trace
Temperature: -11.0 F (-23.9 C)
Windchill: -36 F (-38 C):2
Dew Point: -31.0 F (-35.0 C)
Relative Humidity: 35%
Pressure (altimeter): 30.2 in. Hg (1022 hPa)
ob: KCON 040151Z AUTO 31018G34KT 9SM -SN OVC048 M24/M35 A3020 RMK AO2 PK WND 34039/0128 SLP236 P0000 T12391350
cycle: 2

Station Type Date Time Source
KCON TAF 2023/02/03 18:36 UTC NOAA

TAF KCON 031733Z 0318/0418 31022G33KT P6SM FEW040
FM040400 30015G25KT P6SM SKC

Example: see airport list